TNCA/AUA METAR and TAF weather

Enter ICAO airport designator
Station Type Date Time Source
TNCA METAR 2019/02/16 03:00 UTC NOAA

TNCA 160300Z 09017KT 9999 FEW018 26/23 Q1012 NOSIG


Station Type Date Time Source
TNCA Decoded METAR 2019/02/16 03:00 UTC NOAA

Queen Beatrix Airport, Aruba (TNCA) 12-30N 070-01W 33M
Feb 15, 2019 - 10:00 PM EST / 2019.02.16 0300 UTC
Wind: from the E (090 degrees) at 20 MPH (17 KT):0
Visibility: greater than 7 mile(s):0
Sky conditions: mostly clear
Temperature: 78 F (26 C)
Dew Point: 73 F (23 C)
Relative Humidity: 83%
Pressure (altimeter): 29.88 in. Hg (1012 hPa)
ob: TNCA 160300Z 09017KT 9999 FEW018 26/23 Q1012 NOSIG
cycle: 3

Station Type Date Time Source
TNCA TAF 2019/02/15 18:03 UTC NOAA

TAF TNCA 151800Z 1518/1618 09020KT 9999 SCT020


Example: see airport list